sensor_id;sensor_type;location;lat;lon;timestamp;temperature;humidity
38209;DHT22;24016;52.102;11.584;2024-01-11T00:00:36;-9.70;99.90
38209;DHT22;24016;52.102;11.584;2024-01-11T00:03:02;-9.80;99.90
38209;DHT22;24016;52.102;11.584;2024-01-11T00:05:28;-9.70;99.90
38209;DHT22;24016;52.102;11.584;2024-01-11T00:07:54;-9.70;99.90
38209;DHT22;24016;52.102;11.584;2024-01-11T00:10:19;-9.80;99.90
38209;DHT22;24016;52.102;11.584;2024-01-11T00:12:45;-9.80;99.90
38209;DHT22;24016;52.102;11.584;2024-01-11T00:15:11;-9.80;99.90
38209;DHT22;24016;52.102;11.584;2024-01-11T00:17:37;-9.80;99.90
38209;DHT22;24016;52.102;11.584;2024-01-11T00:20:02;-9.70;99.90
38209;DHT22;24016;52.102;11.584;2024-01-11T00:22:28;-9.70;99.90
38209;DHT22;24016;52.102;11.584;2024-01-11T00:24:54;-9.80;99.90
38209;DHT22;24016;52.102;11.584;2024-01-11T00:27:19;-9.80;99.90
38209;DHT22;24016;52.102;11.584;2024-01-11T00:29:45;-9.80;99.90
38209;DHT22;24016;52.102;11.584;2024-01-11T00:32:10;-9.90;99.90
38209;DHT22;24016;52.102;11.584;2024-01-11T00:34:36;-9.80;99.90
38209;DHT22;24016;52.102;11.584;2024-01-11T00:37:02;-9.80;99.90
38209;DHT22;24016;52.102;11.584;2024-01-11T00:39:27;-9.80;99.90
38209;DHT22;24016;52.102;11.584;2024-01-11T00:41:54;-9.80;99.90
38209;DHT22;24016;52.102;11.584;2024-01-11T00:44:20;-9.80;99.90
38209;DHT22;24016;52.102;11.584;2024-01-11T00:46:45;-10.10;99.90
38209;DHT22;24016;52.102;11.584;2024-01-11T00:49:11;-9.80;99.90
38209;DHT22;24016;52.102;11.584;2024-01-11T00:51:36;-9.90;99.90
38209;DHT22;24016;52.102;11.584;2024-01-11T00:54:02;-9.90;99.90
38209;DHT22;24016;52.102;11.584;2024-01-11T00:56:27;-9.90;99.90
38209;DHT22;24016;52.102;11.584;2024-01-11T00:58:53;-9.90;99.90
38209;DHT22;24016;52.102;11.584;2024-01-11T01:01:18;-9.90;99.90
38209;DHT22;24016;52.102;11.584;2024-01-11T01:03:44;-9.90;99.90
38209;DHT22;24016;52.102;11.584;2024-01-11T01:06:09;-9.90;99.90
38209;DHT22;24016;52.102;11.584;2024-01-11T01:08:35;-9.90;99.90
38209;DHT22;24016;52.102;11.584;2024-01-11T01:11:01;-10.00;99.90
38209;DHT22;24016;52.102;11.584;2024-01-11T01:13:26;-10.00;99.90
38209;DHT22;24016;52.102;11.584;2024-01-11T01:15:52;-10.00;99.90
38209;DHT22;24016;52.102;11.584;2024-01-11T01:18:17;-10.00;99.90
38209;DHT22;24016;52.102;11.584;2024-01-11T01:20:43;-10.00;99.90
38209;DHT22;24016;52.102;11.584;2024-01-11T01:23:09;-10.00;99.90
38209;DHT22;24016;52.102;11.584;2024-01-11T01:25:34;-9.90;99.90
38209;DHT22;24016;52.102;11.584;2024-01-11T01:28:00;-10.00;99.90
38209;DHT22;24016;52.102;11.584;2024-01-11T01:30:26;-10.00;99.90
38209;DHT22;24016;52.102;11.584;2024-01-11T01:32:52;-10.00;99.90
38209;DHT22;24016;52.102;11.584;2024-01-11T01:35:17;-10.00;99.90
38209;DHT22;24016;52.102;11.584;2024-01-11T01:37:43;-10.00;99.90
38209;DHT22;24016;52.102;11.584;2024-01-11T01:40:09;-9.90;99.90
38209;DHT22;24016;52.102;11.584;2024-01-11T01:42:35;-10.00;99.90
38209;DHT22;24016;52.102;11.584;2024-01-11T01:45:00;-10.00;99.90
38209;DHT22;24016;52.102;11.584;2024-01-11T01:47:26;-10.00;99.90
38209;DHT22;24016;52.102;11.584;2024-01-11T01:49:53;-10.10;99.90
38209;DHT22;24016;52.102;11.584;2024-01-11T01:52:21;-10.10;99.90
38209;DHT22;24016;52.102;11.584;2024-01-11T01:54:48;-10.10;99.90
38209;DHT22;24016;52.102;11.584;2024-01-11T01:57:15;-10.10;99.90
38209;DHT22;24016;52.102;11.584;2024-01-11T01:59:42;-10.00;99.90
38209;DHT22;24016;52.102;11.584;2024-01-11T02:02:09;-9.90;99.90
38209;DHT22;24016;52.102;11.584;2024-01-11T02:04:35;-10.00;99.90
38209;DHT22;24016;52.102;11.584;2024-01-11T02:07:01;-9.90;99.90
38209;DHT22;24016;52.102;11.584;2024-01-11T02:09:28;-9.90;99.90
38209;DHT22;24016;52.102;11.584;2024-01-11T02:11:54;-10.00;99.90
38209;DHT22;24016;52.102;11.584;2024-01-11T02:14:20;-9.90;99.90
38209;DHT22;24016;52.102;11.584;2024-01-11T02:16:46;-9.80;99.90
38209;DHT22;24016;52.102;11.584;2024-01-11T02:19:13;-9.80;99.90
38209;DHT22;24016;52.102;11.584;2024-01-11T02:21:42;-9.80;99.90
38209;DHT22;24016;52.102;11.584;2024-01-11T02:24:08;-9.90;99.90
38209;DHT22;24016;52.102;11.584;2024-01-11T02:26:34;-9.90;99.90
38209;DHT22;24016;52.102;11.584;2024-01-11T02:29:00;-10.00;99.90
38209;DHT22;24016;52.102;11.584;2024-01-11T02:31:26;-9.90;99.90
38209;DHT22;24016;52.102;11.584;2024-01-11T02:33:53;-9.80;99.90
38209;DHT22;24016;52.102;11.584;2024-01-11T02:36:21;-9.80;99.90
38209;DHT22;24016;52.102;11.584;2024-01-11T02:38:47;-9.80;99.90
38209;DHT22;24016;52.102;11.584;2024-01-11T02:41:16;-9.80;99.90
38209;DHT22;24016;52.102;11.584;2024-01-11T02:43:49;-9.80;99.90
38209;DHT22;24016;52.102;11.584;2024-01-11T02:46:17;-9.80;99.90
38209;DHT22;24016;52.102;11.584;2024-01-11T02:48:42;-9.80;99.90
38209;DHT22;24016;52.102;11.584;2024-01-11T02:51:12;-9.80;99.90
38209;DHT22;24016;52.102;11.584;2024-01-11T02:53:38;-9.70;99.90
38209;DHT22;24016;52.102;11.584;2024-01-11T02:56:04;-9.70;99.90
38209;DHT22;24016;52.102;11.584;2024-01-11T02:58:29;-9.60;99.90
38209;DHT22;24016;52.102;11.584;2024-01-11T03:00:56;-9.60;99.90
38209;DHT22;24016;52.102;11.584;2024-01-11T03:03:21;-9.50;99.90
38209;DHT22;24016;52.102;11.584;2024-01-11T03:05:48;-9.40;99.90
38209;DHT22;24016;52.102;11.584;2024-01-11T03:08:14;-9.40;99.90
38209;DHT22;24016;52.102;11.584;2024-01-11T03:10:39;-9.50;99.90
38209;DHT22;24016;52.102;11.584;2024-01-11T03:13:08;-9.50;99.90
38209;DHT22;24016;52.102;11.584;2024-01-11T03:15:34;-9.50;99.90
38209;DHT22;24016;52.102;11.584;2024-01-11T03:18:00;-9.50;99.90
38209;DHT22;24016;52.102;11.584;2024-01-11T03:20:25;-9.50;99.90
38209;DHT22;24016;52.102;11.584;2024-01-11T03:22:58;-9.50;99.90
38209;DHT22;24016;52.102;11.584;2024-01-11T03:25:24;-9.50;99.90
38209;DHT22;24016;52.102;11.584;2024-01-11T03:27:51;-9.50;99.90
38209;DHT22;24016;52.102;11.584;2024-01-11T03:30:17;-9.50;99.90
38209;DHT22;24016;52.102;11.584;2024-01-11T03:32:43;-9.60;99.90
38209;DHT22;24016;52.102;11.584;2024-01-11T03:35:14;-9.60;99.90
38209;DHT22;24016;52.102;11.584;2024-01-11T03:37:40;-9.50;99.90
38209;DHT22;24016;52.102;11.584;2024-01-11T03:40:06;-9.40;99.90
38209;DHT22;24016;52.102;11.584;2024-01-11T03:42:32;-9.40;99.90
38209;DHT22;24016;52.102;11.584;2024-01-11T03:44:58;-9.40;99.90
38209;DHT22;24016;52.102;11.584;2024-01-11T03:47:25;-9.40;99.90
38209;DHT22;24016;52.102;11.584;2024-01-11T03:49:51;-9.50;99.90
38209;DHT22;24016;52.102;11.584;2024-01-11T03:52:17;-9.50;99.90
38209;DHT22;24016;52.102;11.584;2024-01-11T03:54:42;-9.50;99.90
38209;DHT22;24016;52.102;11.584;2024-01-11T03:57:08;-9.50;99.90
38209;DHT22;24016;52.102;11.584;2024-01-11T03:59:33;-9.60;99.90
38209;DHT22;24016;52.102;11.584;2024-01-11T04:02:00;-9.60;99.90
38209;DHT22;24016;52.102;11.584;2024-01-11T04:04:26;-9.50;99.90
38209;DHT22;24016;52.102;11.584;2024-01-11T04:06:52;-9.60;99.90
38209;DHT22;24016;52.102;11.584;2024-01-11T04:09:20;-9.60;99.90
38209;DHT22;24016;52.102;11.584;2024-01-11T04:11:49;-9.60;99.90
38209;DHT22;24016;52.102;11.584;2024-01-11T04:14:16;-9.60;99.90
38209;DHT22;24016;52.102;11.584;2024-01-11T04:16:42;-9.70;99.90
38209;DHT22;24016;52.102;11.584;2024-01-11T04:19:08;-9.70;99.90
38209;DHT22;24016;52.102;11.584;2024-01-11T04:21:34;-9.90;99.90
38209;DHT22;24016;52.102;11.584;2024-01-11T04:24:04;-9.80;99.90
38209;DHT22;24016;52.102;11.584;2024-01-11T04:26:32;-9.90;99.90
38209;DHT22;24016;52.102;11.584;2024-01-11T04:28:58;-9.80;99.90
38209;DHT22;24016;52.102;11.584;2024-01-11T04:31:28;-9.70;99.90
38209;DHT22;24016;52.102;11.584;2024-01-11T04:33:54;-9.80;99.90
38209;DHT22;24016;52.102;11.584;2024-01-11T04:36:20;-9.70;99.90
38209;DHT22;24016;52.102;11.584;2024-01-11T04:38:46;-9.70;99.90
38209;DHT22;24016;52.102;11.584;2024-01-11T04:41:13;-9.80;99.90
38209;DHT22;24016;52.102;11.584;2024-01-11T04:43:44;-9.90;99.90
38209;DHT22;24016;52.102;11.584;2024-01-11T04:46:23;-9.90;99.90
38209;DHT22;24016;52.102;11.584;2024-01-11T04:48:50;-9.90;99.90
38209;DHT22;24016;52.102;11.584;2024-01-11T04:51:20;-9.90;99.90
38209;DHT22;24016;52.102;11.584;2024-01-11T04:53:47;-9.90;99.90
38209;DHT22;24016;52.102;11.584;2024-01-11T04:56:16;-10.00;99.90
38209;DHT22;24016;52.102;11.584;2024-01-11T04:58:44;-10.00;99.90
38209;DHT22;24016;52.102;11.584;2024-01-11T05:01:15;-10.10;99.90
38209;DHT22;24016;52.102;11.584;2024-01-11T05:03:45;-10.00;99.90
38209;DHT22;24016;52.102;11.584;2024-01-11T05:06:17;-10.00;99.90
38209;DHT22;24016;52.102;11.584;2024-01-11T05:08:49;-10.10;99.90
38209;DHT22;24016;52.102;11.584;2024-01-11T05:11:24;-10.00;99.90
38209;DHT22;24016;52.102;11.584;2024-01-11T05:13:51;-10.00;99.90
38209;DHT22;24016;52.102;11.584;2024-01-11T05:16:23;-10.00;99.90
38209;DHT22;24016;52.102;11.584;2024-01-11T05:18:55;-10.00;99.90
38209;DHT22;24016;52.102;11.584;2024-01-11T05:21:24;-10.00;99.90
38209;DHT22;24016;52.102;11.584;2024-01-11T05:23:52;-10.00;99.90
38209;DHT22;24016;52.102;11.584;2024-01-11T05:26:19;-10.00;99.90
38209;DHT22;24016;52.102;11.584;2024-01-11T05:28:46;-10.10;99.90
38209;DHT22;24016;52.102;11.584;2024-01-11T05:31:13;-10.10;99.90
38209;DHT22;24016;52.102;11.584;2024-01-11T05:33:44;-10.00;99.90
38209;DHT22;24016;52.102;11.584;2024-01-11T05:36:09;-10.00;99.90
38209;DHT22;24016;52.102;11.584;2024-01-11T05:38:35;-10.00;99.90
38209;DHT22;24016;52.102;11.584;2024-01-11T05:41:02;-10.10;99.90
38209;DHT22;24016;52.102;11.584;2024-01-11T05:43:28;-9.90;99.90
38209;DHT22;24016;52.102;11.584;2024-01-11T05:45:54;-9.80;99.90
38209;DHT22;24016;52.102;11.584;2024-01-11T05:50:51;-9.80;99.90
38209;DHT22;24016;52.102;11.584;2024-01-11T05:53:16;-9.70;99.90
38209;DHT22;24016;52.102;11.584;2024-01-11T05:55:45;-9.70;99.90
38209;DHT22;24016;52.102;11.584;2024-01-11T05:58:11;-9.60;99.90
38209;DHT22;24016;52.102;11.584;2024-01-11T06:00:37;-9.60;99.90
38209;DHT22;24016;52.102;11.584;2024-01-11T06:03:02;-9.50;99.90
38209;DHT22;24016;52.102;11.584;2024-01-11T06:05:28;-9.40;99.90
38209;DHT22;24016;52.102;11.584;2024-01-11T06:07:54;-9.30;99.90
38209;DHT22;24016;52.102;11.584;2024-01-11T06:10:19;-9.20;99.90
38209;DHT22;24016;52.102;11.584;2024-01-11T06:12:45;-9.20;99.90
38209;DHT22;24016;52.102;11.584;2024-01-11T06:15:11;-9.00;99.90
38209;DHT22;24016;52.102;11.584;2024-01-11T06:17:36;-9.10;99.90
38209;DHT22;24016;52.102;11.584;2024-01-11T06:20:02;-9.00;99.90
38209;DHT22;24016;52.102;11.584;2024-01-11T06:22:29;-9.00;99.90
38209;DHT22;24016;52.102;11.584;2024-01-11T06:24:54;-8.90;99.90
38209;DHT22;24016;52.102;11.584;2024-01-11T06:27:20;-8.90;99.90
38209;DHT22;24016;52.102;11.584;2024-01-11T06:29:45;-8.80;99.90
38209;DHT22;24016;52.102;11.584;2024-01-11T06:32:11;-8.90;99.90
38209;DHT22;24016;52.102;11.584;2024-01-11T06:34:36;-8.90;99.90
38209;DHT22;24016;52.102;11.584;2024-01-11T06:37:02;-8.90;99.90
38209;DHT22;24016;52.102;11.584;2024-01-11T06:39:30;-8.90;99.90
38209;DHT22;24016;52.102;11.584;2024-01-11T06:41:56;-8.90;99.90
38209;DHT22;24016;52.102;11.584;2024-01-11T06:44:22;-8.90;99.90
38209;DHT22;24016;52.102;11.584;2024-01-11T06:46:47;-8.80;99.90
38209;DHT22;24016;52.102;11.584;2024-01-11T06:49:13;-9.00;99.90
38209;DHT22;24016;52.102;11.584;2024-01-11T06:51:38;-9.00;99.90
38209;DHT22;24016;52.102;11.584;2024-01-11T06:54:04;-9.00;99.90
38209;DHT22;24016;52.102;11.584;2024-01-11T06:56:30;-9.00;99.90
38209;DHT22;24016;52.102;11.584;2024-01-11T06:58:55;-9.10;99.90
38209;DHT22;24016;52.102;11.584;2024-01-11T07:01:21;-9.10;99.90
38209;DHT22;24016;52.102;11.584;2024-01-11T07:03:47;-9.00;99.90
38209;DHT22;24016;52.102;11.584;2024-01-11T07:06:12;-9.10;99.90
38209;DHT22;24016;52.102;11.584;2024-01-11T07:08:38;-9.10;99.90
38209;DHT22;24016;52.102;11.584;2024-01-11T07:11:03;-9.10;99.90
38209;DHT22;24016;52.102;11.584;2024-01-11T07:13:30;-9.00;99.90
38209;DHT22;24016;52.102;11.584;2024-01-11T07:15:56;-9.00;99.90
38209;DHT22;24016;52.102;11.584;2024-01-11T07:18:23;-9.00;99.90
38209;DHT22;24016;52.102;11.584;2024-01-11T07:20:50;-8.80;99.90
38209;DHT22;24016;52.102;11.584;2024-01-11T07:23:15;-9.00;99.90
38209;DHT22;24016;52.102;11.584;2024-01-11T07:25:41;-9.00;99.90
38209;DHT22;24016;52.102;11.584;2024-01-11T07:28:07;-9.00;99.90
38209;DHT22;24016;52.102;11.584;2024-01-11T07:30:32;-9.00;99.90
38209;DHT22;24016;52.102;11.584;2024-01-11T07:32:58;-9.00;99.90
38209;DHT22;24016;52.102;11.584;2024-01-11T07:35:23;-8.90;99.90
38209;DHT22;24016;52.102;11.584;2024-01-11T07:37:49;-8.90;99.90
38209;DHT22;24016;52.102;11.584;2024-01-11T07:40:15;-8.90;99.90
38209;DHT22;24016;52.102;11.584;2024-01-11T07:42:42;-8.90;99.90
38209;DHT22;24016;52.102;11.584;2024-01-11T07:45:09;-8.80;99.90
38209;DHT22;24016;52.102;11.584;2024-01-11T07:47:38;-8.80;99.90
38209;DHT22;24016;52.102;11.584;2024-01-11T07:50:08;-8.80;99.90
38209;DHT22;24016;52.102;11.584;2024-01-11T07:52:37;-8.70;99.90
38209;DHT22;24016;52.102;11.584;2024-01-11T07:55:04;-8.70;99.90
38209;DHT22;24016;52.102;11.584;2024-01-11T07:57:36;-8.60;99.90
38209;DHT22;24016;52.102;11.584;2024-01-11T08:00:03;-8.50;99.90
38209;DHT22;24016;52.102;11.584;2024-01-11T08:02:30;-8.50;99.90
38209;DHT22;24016;52.102;11.584;2024-01-11T08:04:55;-8.40;99.90
38209;DHT22;24016;52.102;11.584;2024-01-11T08:07:21;-8.30;99.90
38209;DHT22;24016;52.102;11.584;2024-01-11T08:09:47;-8.20;99.90
38209;DHT22;24016;52.102;11.584;2024-01-11T08:12:14;-8.10;99.90
38209;DHT22;24016;52.102;11.584;2024-01-11T08:14:39;-8.10;99.90
38209;DHT22;24016;52.102;11.584;2024-01-11T08:17:07;-8.00;99.90
38209;DHT22;24016;52.102;11.584;2024-01-11T08:19:33;-7.90;99.90
38209;DHT22;24016;52.102;11.584;2024-01-11T08:21:59;-7.90;99.90
38209;DHT22;24016;52.102;11.584;2024-01-11T08:24:24;-7.80;99.90
38209;DHT22;24016;52.102;11.584;2024-01-11T08:26:51;-7.80;99.90
38209;DHT22;24016;52.102;11.584;2024-01-11T08:29:16;-7.80;99.90
38209;DHT22;24016;52.102;11.584;2024-01-11T08:31:44;-7.70;99.90
38209;DHT22;24016;52.102;11.584;2024-01-11T08:34:09;-7.60;99.90
38209;DHT22;24016;52.102;11.584;2024-01-11T08:36:36;-7.50;99.90
38209;DHT22;24016;52.102;11.584;2024-01-11T08:39:05;-7.30;99.90
38209;DHT22;24016;52.102;11.584;2024-01-11T08:41:31;-7.10;99.90
38209;DHT22;24016;52.102;11.584;2024-01-11T08:43:58;-6.90;99.90
38209;DHT22;24016;52.102;11.584;2024-01-11T08:46:24;-6.80;99.90
38209;DHT22;24016;52.102;11.584;2024-01-11T08:48:51;-6.70;99.90
38209;DHT22;24016;52.102;11.584;2024-01-11T08:51:16;-6.60;99.90
38209;DHT22;24016;52.102;11.584;2024-01-11T08:53:42;-6.50;99.90
38209;DHT22;24016;52.102;11.584;2024-01-11T08:56:07;-6.40;99.90
38209;DHT22;24016;52.102;11.584;2024-01-11T08:58:33;-6.40;99.90
38209;DHT22;24016;52.102;11.584;2024-01-11T09:00:58;-6.20;99.90
38209;DHT22;24016;52.102;11.584;2024-01-11T09:03:24;-6.00;99.90
38209;DHT22;24016;52.102;11.584;2024-01-11T09:05:50;-5.80;99.90
38209;DHT22;24016;52.102;11.584;2024-01-11T09:08:15;-5.60;99.90
38209;DHT22;24016;52.102;11.584;2024-01-11T09:10:41;-5.50;99.90
38209;DHT22;24016;52.102;11.584;2024-01-11T09:13:07;-5.50;99.90
38209;DHT22;24016;52.102;11.584;2024-01-11T09:15:32;-5.40;99.90
38209;DHT22;24016;52.102;11.584;2024-01-11T09:17:59;-5.40;99.90
38209;DHT22;24016;52.102;11.584;2024-01-11T09:20:28;-5.30;99.90
38209;DHT22;24016;52.102;11.584;2024-01-11T09:22:53;-5.20;99.90
38209;DHT22;24016;52.102;11.584;2024-01-11T09:25:19;-5.20;99.90
38209;DHT22;24016;52.102;11.584;2024-01-11T09:27:44;-5.10;99.90
38209;DHT22;24016;52.102;11.584;2024-01-11T09:30:10;-5.00;99.90
38209;DHT22;24016;52.102;11.584;2024-01-11T09:32:36;-4.90;99.90
38209;DHT22;24016;52.102;11.584;2024-01-11T09:35:03;-4.80;99.90
38209;DHT22;24016;52.102;11.584;2024-01-11T09:37:30;-4.70;99.90
38209;DHT22;24016;52.102;11.584;2024-01-11T09:39:56;-4.60;99.90
38209;DHT22;24016;52.102;11.584;2024-01-11T09:42:21;-4.50;99.90
38209;DHT22;24016;52.102;11.584;2024-01-11T09:44:47;-4.30;99.90
38209;DHT22;24016;52.102;11.584;2024-01-11T09:47:15;-4.20;99.90
38209;DHT22;24016;52.102;11.584;2024-01-11T09:49:44;-4.00;99.90
38209;DHT22;24016;52.102;11.584;2024-01-11T09:52:11;-3.90;99.90
38209;DHT22;24016;52.102;11.584;2024-01-11T09:54:38;-3.80;99.90
38209;DHT22;24016;52.102;11.584;2024-01-11T09:57:06;-3.70;99.90
38209;DHT22;24016;52.102;11.584;2024-01-11T09:59:34;-3.50;99.90
38209;DHT22;24016;52.102;11.584;2024-01-11T10:02:01;-3.30;99.90
38209;DHT22;24016;52.102;11.584;2024-01-11T10:04:28;-3.20;99.90
38209;DHT22;24016;52.102;11.584;2024-01-11T10:06:54;-3.10;99.90
38209;DHT22;24016;52.102;11.584;2024-01-11T10:09:20;-3.00;99.90
38209;DHT22;24016;52.102;11.584;2024-01-11T10:11:46;-2.90;99.90
38209;DHT22;24016;52.102;11.584;2024-01-11T10:14:15;-2.90;99.90
38209;DHT22;24016;52.102;11.584;2024-01-11T10:16:43;-2.90;99.90
38209;DHT22;24016;52.102;11.584;2024-01-11T10:19:09;-3.00;99.90
38209;DHT22;24016;52.102;11.584;2024-01-11T10:21:38;-3.10;99.90
38209;DHT22;24016;52.102;11.584;2024-01-11T10:24:05;-3.30;99.90
38209;DHT22;24016;52.102;11.584;2024-01-11T10:26:30;-3.40;99.90
38209;DHT22;24016;52.102;11.584;2024-01-11T10:28:59;-3.50;99.90
38209;DHT22;24016;52.102;11.584;2024-01-11T10:31:28;-3.50;99.90
38209;DHT22;24016;52.102;11.584;2024-01-11T10:33:54;-3.40;99.90
38209;DHT22;24016;52.102;11.584;2024-01-11T10:36:19;-3.40;99.90
38209;DHT22;24016;52.102;11.584;2024-01-11T10:38:47;-3.20;99.90
38209;DHT22;24016;52.102;11.584;2024-01-11T10:41:13;-2.80;99.90
38209;DHT22;24016;52.102;11.584;2024-01-11T10:43:44;-2.50;99.90
38209;DHT22;24016;52.102;11.584;2024-01-11T10:46:12;-2.10;99.90
38209;DHT22;24016;52.102;11.584;2024-01-11T10:48:39;-1.70;99.90
38209;DHT22;24016;52.102;11.584;2024-01-11T10:51:09;-1.40;99.90
38209;DHT22;24016;52.102;11.584;2024-01-11T10:53:45;-1.20;99.90
38209;DHT22;24016;52.102;11.584;2024-01-11T10:56:15;-1.20;99.90
38209;DHT22;24016;52.102;11.584;2024-01-11T10:58:44;-1.30;99.90
38209;DHT22;24016;52.102;11.584;2024-01-11T11:01:12;-1.40;99.90
38209;DHT22;24016;52.102;11.584;2024-01-11T11:03:38;-1.60;99.90
38209;DHT22;24016;52.102;11.584;2024-01-11T11:06:05;-2.00;99.90
38209;DHT22;24016;52.102;11.584;2024-01-11T11:08:32;-2.30;99.90
38209;DHT22;24016;52.102;11.584;2024-01-11T11:11:00;-2.40;99.90
38209;DHT22;24016;52.102;11.584;2024-01-11T11:13:26;-2.50;99.90
38209;DHT22;24016;52.102;11.584;2024-01-11T11:15:52;-2.30;99.90
38209;DHT22;24016;52.102;11.584;2024-01-11T11:18:19;-2.20;99.90
38209;DHT22;24016;52.102;11.584;2024-01-11T11:20:45;-2.10;99.90
38209;DHT22;24016;52.102;11.584;2024-01-11T11:23:13;-1.90;99.90
38209;DHT22;24016;52.102;11.584;2024-01-11T11:25:44;-1.90;99.90
38209;DHT22;24016;52.102;11.584;2024-01-11T11:28:11;-1.90;99.90
38209;DHT22;24016;52.102;11.584;2024-01-11T11:30:38;-2.00;99.90
38209;DHT22;24016;52.102;11.584;2024-01-11T11:33:16;-1.80;99.90
38209;DHT22;24016;52.102;11.584;2024-01-11T11:35:42;-1.80;99.90
38209;DHT22;24016;52.102;11.584;2024-01-11T11:38:08;-1.90;99.90
38209;DHT22;24016;52.102;11.584;2024-01-11T11:40:37;-2.10;99.90
38209;DHT22;24016;52.102;11.584;2024-01-11T11:43:05;-2.30;99.90
38209;DHT22;24016;52.102;11.584;2024-01-11T11:45:31;-2.40;99.90
38209;DHT22;24016;52.102;11.584;2024-01-11T11:47:57;-2.40;99.90
38209;DHT22;24016;52.102;11.584;2024-01-11T11:50:23;-2.50;99.90
38209;DHT22;24016;52.102;11.584;2024-01-11T11:52:55;-2.50;99.90
38209;DHT22;24016;52.102;11.584;2024-01-11T11:55:24;-2.50;99.90
38209;DHT22;24016;52.102;11.584;2024-01-11T11:57:53;-2.50;99.90
38209;DHT22;24016;52.102;11.584;2024-01-11T12:00:20;-2.60;99.90
38209;DHT22;24016;52.102;11.584;2024-01-11T12:02:47;-2.70;99.90
38209;DHT22;24016;52.102;11.584;2024-01-11T12:05:13;-2.90;99.90
38209;DHT22;24016;52.102;11.584;2024-01-11T12:07:39;-2.90;99.90
38209;DHT22;24016;52.102;11.584;2024-01-11T12:10:05;-3.00;99.90
38209;DHT22;24016;52.102;11.584;2024-01-11T12:12:32;-3.10;99.90
38209;DHT22;24016;52.102;11.584;2024-01-11T12:14:59;-3.20;99.90
38209;DHT22;24016;52.102;11.584;2024-01-11T12:17:24;-3.30;99.90
38209;DHT22;24016;52.102;11.584;2024-01-11T12:19:52;-3.30;99.90
38209;DHT22;24016;52.102;11.584;2024-01-11T12:22:17;-3.30;99.90
38209;DHT22;24016;52.102;11.584;2024-01-11T12:24:45;-3.40;99.90
38209;DHT22;24016;52.102;11.584;2024-01-11T12:27:11;-3.40;99.90
38209;DHT22;24016;52.102;11.584;2024-01-11T12:29:39;-3.50;99.90
38209;DHT22;24016;52.102;11.584;2024-01-11T12:32:05;-3.60;99.90
38209;DHT22;24016;52.102;11.584;2024-01-11T12:34:30;-3.60;99.90
38209;DHT22;24016;52.102;11.584;2024-01-11T12:36:56;-3.60;99.90
38209;DHT22;24016;52.102;11.584;2024-01-11T12:39:26;-3.60;99.90
38209;DHT22;24016;52.102;11.584;2024-01-11T12:41:54;-3.50;99.90
38209;DHT22;24016;52.102;11.584;2024-01-11T12:44:20;-3.50;99.90
38209;DHT22;24016;52.102;11.584;2024-01-11T12:46:47;-3.50;99.90
38209;DHT22;24016;52.102;11.584;2024-01-11T12:49:13;-3.60;99.90
38209;DHT22;24016;52.102;11.584;2024-01-11T12:51:39;-3.60;99.90
38209;DHT22;24016;52.102;11.584;2024-01-11T12:54:11;-3.60;99.90
38209;DHT22;24016;52.102;11.584;2024-01-11T12:56:41;-3.50;99.90
38209;DHT22;24016;52.102;11.584;2024-01-11T12:59:08;-3.50;99.90
38209;DHT22;24016;52.102;11.584;2024-01-11T13:01:35;-3.40;99.90
38209;DHT22;24016;52.102;11.584;2024-01-11T13:04:01;-3.40;99.90
38209;DHT22;24016;52.102;11.584;2024-01-11T13:06:31;-3.30;99.90
38209;DHT22;24016;52.102;11.584;2024-01-11T13:08:57;-3.30;99.90
38209;DHT22;24016;52.102;11.584;2024-01-11T13:11:23;-3.30;99.90
38209;DHT22;24016;52.102;11.584;2024-01-11T13:13:50;-3.30;99.90
38209;DHT22;24016;52.102;11.584;2024-01-11T13:16:17;-3.40;99.90
38209;DHT22;24016;52.102;11.584;2024-01-11T13:18:47;-3.50;99.90
38209;DHT22;24016;52.102;11.584;2024-01-11T13:21:13;-3.50;99.90
38209;DHT22;24016;52.102;11.584;2024-01-11T13:23:39;-3.60;99.90
38209;DHT22;24016;52.102;11.584;2024-01-11T13:26:06;-3.60;99.90
38209;DHT22;24016;52.102;11.584;2024-01-11T13:28:31;-3.60;99.90
38209;DHT22;24016;52.102;11.584;2024-01-11T13:30:57;-3.60;99.90
38209;DHT22;24016;52.102;11.584;2024-01-11T13:33:23;-3.50;99.90
38209;DHT22;24016;52.102;11.584;2024-01-11T13:35:49;-3.40;99.90
38209;DHT22;24016;52.102;11.584;2024-01-11T13:38:14;-3.50;99.90
38209;DHT22;24016;52.102;11.584;2024-01-11T13:40:40;-3.40;99.90
38209;DHT22;24016;52.102;11.584;2024-01-11T13:43:07;-3.40;99.90
38209;DHT22;24016;52.102;11.584;2024-01-11T13:45:32;-3.30;99.90
38209;DHT22;24016;52.102;11.584;2024-01-11T13:48:01;-3.30;99.90
38209;DHT22;24016;52.102;11.584;2024-01-11T13:50:27;-3.30;99.90
38209;DHT22;24016;52.102;11.584;2024-01-11T13:52:53;-3.30;99.90
38209;DHT22;24016;52.102;11.584;2024-01-11T13:55:19;-3.40;99.90
38209;DHT22;24016;52.102;11.584;2024-01-11T13:57:46;-3.40;99.90
38209;DHT22;24016;52.102;11.584;2024-01-11T14:00:12;-3.30;99.90
38209;DHT22;24016;52.102;11.584;2024-01-11T14:02:38;-3.40;99.90
38209;DHT22;24016;52.102;11.584;2024-01-11T14:05:06;-3.30;99.90
38209;DHT22;24016;52.102;11.584;2024-01-11T14:07:35;-3.30;99.90
38209;DHT22;24016;52.102;11.584;2024-01-11T14:10:00;-3.40;99.90
38209;DHT22;24016;52.102;11.584;2024-01-11T14:12:26;-3.40;99.90
38209;DHT22;24016;52.102;11.584;2024-01-11T14:14:51;-3.50;99.90
38209;DHT22;24016;52.102;11.584;2024-01-11T14:17:17;-3.40;99.90
38209;DHT22;24016;52.102;11.584;2024-01-11T14:19:42;-3.50;99.90
38209;DHT22;24016;52.102;11.584;2024-01-11T14:22:08;-3.40;99.90
38209;DHT22;24016;52.102;11.584;2024-01-11T14:24:33;-3.40;99.90
38209;DHT22;24016;52.102;11.584;2024-01-11T14:26:59;-3.30;99.90
38209;DHT22;24016;52.102;11.584;2024-01-11T14:29:24;-3.30;99.90
38209;DHT22;24016;52.102;11.584;2024-01-11T14:31:50;-3.20;99.90
38209;DHT22;24016;52.102;11.584;2024-01-11T14:34:15;-3.10;99.90
38209;DHT22;24016;52.102;11.584;2024-01-11T14:36:41;-3.10;99.90
38209;DHT22;24016;52.102;11.584;2024-01-11T14:39:07;-3.10;99.90
38209;DHT22;24016;52.102;11.584;2024-01-11T14:41:33;-3.00;99.90
38209;DHT22;24016;52.102;11.584;2024-01-11T14:43:59;-3.10;99.90
38209;DHT22;24016;52.102;11.584;2024-01-11T14:46:26;-3.00;99.90
38209;DHT22;24016;52.102;11.584;2024-01-11T14:48:51;-3.00;99.90
38209;DHT22;24016;52.102;11.584;2024-01-11T14:51:17;-3.00;99.90
38209;DHT22;24016;52.102;11.584;2024-01-11T14:53:43;-2.90;99.90
38209;DHT22;24016;52.102;11.584;2024-01-11T14:56:09;-2.90;99.90
38209;DHT22;24016;52.102;11.584;2024-01-11T14:58:36;-2.90;99.90
38209;DHT22;24016;52.102;11.584;2024-01-11T15:01:01;-2.80;99.90
38209;DHT22;24016;52.102;11.584;2024-01-11T15:03:27;-2.80;99.90
38209;DHT22;24016;52.102;11.584;2024-01-11T15:05:52;-2.80;99.90
38209;DHT22;24016;52.102;11.584;2024-01-11T15:08:19;-2.80;99.90
38209;DHT22;24016;52.102;11.584;2024-01-11T15:10:48;-2.80;99.90
38209;DHT22;24016;52.102;11.584;2024-01-11T15:13:14;-2.80;99.90